sensor_id;sensor_type;location;lat;lon;timestamp;P1;durP1;ratioP1;P2;durP2;ratioP2
75628;SDS011;64213;46.452;16.994;2023-05-03T00:01:25;14.93;;;7.37;;
75628;SDS011;64213;46.452;16.994;2023-05-03T00:04:27;15.10;;;6.93;;
75628;SDS011;64213;46.452;16.994;2023-05-03T00:07:29;14.35;;;6.15;;
75628;SDS011;64213;46.452;16.994;2023-05-03T00:10:32;13.88;;;6.40;;
75628;SDS011;64213;46.452;16.994;2023-05-03T00:13:34;12.27;;;5.47;;
75628;SDS011;64213;46.452;16.994;2023-05-03T00:16:36;14.47;;;6.97;;
75628;SDS011;64213;46.452;16.994;2023-05-03T00:19:38;14.40;;;7.17;;
75628;SDS011;64213;46.452;16.994;2023-05-03T00:22:48;12.50;;;6.07;;
75628;SDS011;64213;46.452;16.994;2023-05-03T00:25:51;17.08;;;6.75;;
75628;SDS011;64213;46.452;16.994;2023-05-03T00:28:57;13.93;;;6.85;;
75628;SDS011;64213;46.452;16.994;2023-05-03T00:31:59;14.83;;;7.10;;
75628;SDS011;64213;46.452;16.994;2023-05-03T00:35:03;13.93;;;6.70;;
75628;SDS011;64213;46.452;16.994;2023-05-03T00:38:05;15.38;;;6.90;;
75628;SDS011;64213;46.452;16.994;2023-05-03T00:41:10;14.43;;;7.15;;
75628;SDS011;64213;46.452;16.994;2023-05-03T00:44:13;15.23;;;7.25;;
75628;SDS011;64213;46.452;16.994;2023-05-03T00:47:16;15.30;;;7.10;;
75628;SDS011;64213;46.452;16.994;2023-05-03T00:50:18;17.40;;;7.90;;
75628;SDS011;64213;46.452;16.994;2023-05-03T00:53:20;15.70;;;7.15;;
75628;SDS011;64213;46.452;16.994;2023-05-03T00:56:23;14.25;;;6.68;;
75628;SDS011;64213;46.452;16.994;2023-05-03T00:59:27;15.02;;;7.87;;
75628;SDS011;64213;46.452;16.994;2023-05-03T01:02:29;16.73;;;8.13;;
75628;SDS011;64213;46.452;16.994;2023-05-03T01:05:32;16.50;;;7.77;;
75628;SDS011;64213;46.452;16.994;2023-05-03T01:08:43;15.20;;;6.37;;
75628;SDS011;64213;46.452;16.994;2023-05-03T01:11:54;16.55;;;7.78;;
75628;SDS011;64213;46.452;16.994;2023-05-03T01:15:16;12.98;;;5.65;;
75628;SDS011;64213;46.452;16.994;2023-05-03T01:18:30;18.43;;;8.97;;
75628;SDS011;64213;46.452;16.994;2023-05-03T01:21:38;16.60;;;8.03;;
75628;SDS011;64213;46.452;16.994;2023-05-03T01:24:50;15.18;;;7.57;;
75628;SDS011;64213;46.452;16.994;2023-05-03T01:28:12;15.18;;;7.50;;
75628;SDS011;64213;46.452;16.994;2023-05-03T01:31:17;16.50;;;7.72;;
75628;SDS011;64213;46.452;16.994;2023-05-03T01:34:27;14.40;;;6.73;;
75628;SDS011;64213;46.452;16.994;2023-05-03T01:37:38;16.87;;;7.80;;
75628;SDS011;64213;46.452;16.994;2023-05-03T01:40:44;15.50;;;7.28;;
75628;SDS011;64213;46.452;16.994;2023-05-03T01:43:50;14.65;;;6.57;;
75628;SDS011;64213;46.452;16.994;2023-05-03T01:46:54;14.82;;;6.68;;
75628;SDS011;64213;46.452;16.994;2023-05-03T01:49:57;17.73;;;9.03;;
75628;SDS011;64213;46.452;16.994;2023-05-03T01:52:59;16.37;;;7.47;;
75628;SDS011;64213;46.452;16.994;2023-05-03T01:56:02;16.98;;;7.90;;
75628;SDS011;64213;46.452;16.994;2023-05-03T01:59:04;19.25;;;8.82;;
75628;SDS011;64213;46.452;16.994;2023-05-03T02:02:06;18.80;;;8.52;;
75628;SDS011;64213;46.452;16.994;2023-05-03T02:05:08;18.47;;;8.50;;
75628;SDS011;64213;46.452;16.994;2023-05-03T02:08:11;19.20;;;9.23;;
75628;SDS011;64213;46.452;16.994;2023-05-03T02:11:13;16.98;;;8.27;;
75628;SDS011;64213;46.452;16.994;2023-05-03T02:14:15;15.90;;;7.70;;
75628;SDS011;64213;46.452;16.994;2023-05-03T02:17:17;15.63;;;7.50;;
75628;SDS011;64213;46.452;16.994;2023-05-03T02:20:21;15.20;;;7.00;;
75628;SDS011;64213;46.452;16.994;2023-05-03T02:23:23;15.10;;;7.37;;
75628;SDS011;64213;46.452;16.994;2023-05-03T02:26:25;15.82;;;8.05;;
75628;SDS011;64213;46.452;16.994;2023-05-03T02:29:27;16.73;;;7.68;;
75628;SDS011;64213;46.452;16.994;2023-05-03T02:32:29;16.98;;;7.75;;
75628;SDS011;64213;46.452;16.994;2023-05-03T02:35:32;15.20;;;7.37;;
75628;SDS011;64213;46.452;16.994;2023-05-03T02:38:34;12.37;;;5.37;;
75628;SDS011;64213;46.452;16.994;2023-05-03T02:41:36;14.10;;;7.00;;
75628;SDS011;64213;46.452;16.994;2023-05-03T02:44:38;13.13;;;6.28;;
75628;SDS011;64213;46.452;16.994;2023-05-03T02:47:40;12.25;;;6.15;;
75628;SDS011;64213;46.452;16.994;2023-05-03T02:50:43;14.17;;;6.27;;
75628;SDS011;64213;46.452;16.994;2023-05-03T02:53:45;13.13;;;6.33;;
75628;SDS011;64213;46.452;16.994;2023-05-03T02:56:47;14.25;;;6.68;;
75628;SDS011;64213;46.452;16.994;2023-05-03T02:59:49;13.13;;;6.32;;
75628;SDS011;64213;46.452;16.994;2023-05-03T03:02:52;12.93;;;6.25;;
75628;SDS011;64213;46.452;16.994;2023-05-03T03:05:54;13.10;;;6.13;;
75628;SDS011;64213;46.452;16.994;2023-05-03T03:08:56;14.53;;;6.37;;
75628;SDS011;64213;46.452;16.994;2023-05-03T03:11:59;13.23;;;6.15;;
75628;SDS011;64213;46.452;16.994;2023-05-03T03:15:03;14.43;;;7.37;;
75628;SDS011;64213;46.452;16.994;2023-05-03T03:18:06;13.00;;;5.68;;
75628;SDS011;64213;46.452;16.994;2023-05-03T03:21:08;14.20;;;5.90;;
75628;SDS011;64213;46.452;16.994;2023-05-03T03:24:10;13.77;;;6.87;;
75628;SDS011;64213;46.452;16.994;2023-05-03T03:27:12;15.02;;;6.32;;
75628;SDS011;64213;46.452;16.994;2023-05-03T03:30:14;15.48;;;7.10;;
75628;SDS011;64213;46.452;16.994;2023-05-03T03:33:17;14.60;;;6.78;;
75628;SDS011;64213;46.452;16.994;2023-05-03T03:36:19;17.10;;;7.30;;
75628;SDS011;64213;46.452;16.994;2023-05-03T03:39:21;15.53;;;6.50;;
75628;SDS011;64213;46.452;16.994;2023-05-03T03:42:24;15.30;;;7.10;;
75628;SDS011;64213;46.452;16.994;2023-05-03T03:45:26;18.55;;;7.75;;
75628;SDS011;64213;46.452;16.994;2023-05-03T03:48:28;16.35;;;7.50;;
75628;SDS011;64213;46.452;16.994;2023-05-03T03:51:30;13.70;;;6.63;;
75628;SDS011;64213;46.452;16.994;2023-05-03T03:54:32;14.60;;;7.47;;
75628;SDS011;64213;46.452;16.994;2023-05-03T03:57:37;15.15;;;7.53;;
75628;SDS011;64213;46.452;16.994;2023-05-03T04:00:39;12.10;;;5.12;;
75628;SDS011;64213;46.452;16.994;2023-05-03T04:03:43;14.52;;;6.35;;
75628;SDS011;64213;46.452;16.994;2023-05-03T04:06:47;13.57;;;5.63;;
75628;SDS011;64213;46.452;16.994;2023-05-03T04:09:49;17.33;;;8.10;;
75628;SDS011;64213;46.452;16.994;2023-05-03T04:12:51;17.23;;;7.75;;
75628;SDS011;64213;46.452;16.994;2023-05-03T04:15:53;14.20;;;6.82;;
75628;SDS011;64213;46.452;16.994;2023-05-03T04:18:57;15.82;;;7.45;;
75628;SDS011;64213;46.452;16.994;2023-05-03T04:21:59;15.43;;;7.80;;
75628;SDS011;64213;46.452;16.994;2023-05-03T04:25:01;13.07;;;6.10;;
75628;SDS011;64213;46.452;16.994;2023-05-03T04:28:04;12.02;;;5.85;;
75628;SDS011;64213;46.452;16.994;2023-05-03T04:31:07;15.07;;;7.35;;
75628;SDS011;64213;46.452;16.994;2023-05-03T04:34:10;14.73;;;7.03;;
75628;SDS011;64213;46.452;16.994;2023-05-03T04:37:15;14.40;;;6.83;;
75628;SDS011;64213;46.452;16.994;2023-05-03T04:40:19;16.53;;;8.10;;
75628;SDS011;64213;46.452;16.994;2023-05-03T04:43:21;16.85;;;7.82;;
75628;SDS011;64213;46.452;16.994;2023-05-03T04:46:23;15.20;;;6.97;;
75628;SDS011;64213;46.452;16.994;2023-05-03T04:49:26;15.00;;;6.70;;
75628;SDS011;64213;46.452;16.994;2023-05-03T04:52:29;15.50;;;6.63;;
75628;SDS011;64213;46.452;16.994;2023-05-03T04:55:31;14.23;;;6.37;;
75628;SDS011;64213;46.452;16.994;2023-05-03T04:58:33;14.77;;;6.47;;
75628;SDS011;64213;46.452;16.994;2023-05-03T05:01:36;15.18;;;7.15;;
75628;SDS011;64213;46.452;16.994;2023-05-03T05:04:38;14.13;;;6.32;;
75628;SDS011;64213;46.452;16.994;2023-05-03T05:07:40;13.70;;;6.37;;
75628;SDS011;64213;46.452;16.994;2023-05-03T05:10:42;13.67;;;6.23;;
75628;SDS011;64213;46.452;16.994;2023-05-03T05:13:45;15.88;;;7.25;;
75628;SDS011;64213;46.452;16.994;2023-05-03T05:16:47;15.57;;;6.70;;
75628;SDS011;64213;46.452;16.994;2023-05-03T05:19:49;12.35;;;5.95;;
75628;SDS011;64213;46.452;16.994;2023-05-03T05:22:51;10.67;;;4.63;;
75628;SDS011;64213;46.452;16.994;2023-05-03T05:25:54;13.90;;;6.17;;
75628;SDS011;64213;46.452;16.994;2023-05-03T05:29:01;16.02;;;7.07;;
75628;SDS011;64213;46.452;16.994;2023-05-03T05:32:03;13.98;;;6.80;;
75628;SDS011;64213;46.452;16.994;2023-05-03T05:35:06;12.95;;;6.85;;
75628;SDS011;64213;46.452;16.994;2023-05-03T05:38:08;17.67;;;7.90;;
75628;SDS011;64213;46.452;16.994;2023-05-03T05:41:11;13.63;;;6.90;;
75628;SDS011;64213;46.452;16.994;2023-05-03T05:44:13;13.50;;;7.03;;
75628;SDS011;64213;46.452;16.994;2023-05-03T05:47:15;14.43;;;6.97;;
75628;SDS011;64213;46.452;16.994;2023-05-03T05:50:17;13.15;;;6.35;;
75628;SDS011;64213;46.452;16.994;2023-05-03T05:53:20;15.10;;;7.30;;
75628;SDS011;64213;46.452;16.994;2023-05-03T05:56:22;16.03;;;7.10;;
75628;SDS011;64213;46.452;16.994;2023-05-03T05:59:24;14.95;;;5.32;;
75628;SDS011;64213;46.452;16.994;2023-05-03T06:02:26;13.35;;;6.30;;
75628;SDS011;64213;46.452;16.994;2023-05-03T06:05:28;13.15;;;6.03;;
75628;SDS011;64213;46.452;16.994;2023-05-03T06:08:31;14.13;;;6.47;;
75628;SDS011;64213;46.452;16.994;2023-05-03T06:11:33;11.33;;;5.20;;
75628;SDS011;64213;46.452;16.994;2023-05-03T06:14:36;12.75;;;5.28;;
75628;SDS011;64213;46.452;16.994;2023-05-03T06:17:39;14.20;;;6.62;;
75628;SDS011;64213;46.452;16.994;2023-05-03T06:20:42;8.05;;;3.42;;
75628;SDS011;64213;46.452;16.994;2023-05-03T06:23:44;12.50;;;5.30;;
75628;SDS011;64213;46.452;16.994;2023-05-03T06:26:46;14.73;;;6.20;;
75628;SDS011;64213;46.452;16.994;2023-05-03T06:29:51;14.15;;;6.12;;
75628;SDS011;64213;46.452;16.994;2023-05-03T06:32:53;13.62;;;6.28;;
75628;SDS011;64213;46.452;16.994;2023-05-03T06:35:55;11.20;;;4.97;;
75628;SDS011;64213;46.452;16.994;2023-05-03T06:38:57;12.50;;;6.07;;
75628;SDS011;64213;46.452;16.994;2023-05-03T06:41:59;13.43;;;6.67;;
75628;SDS011;64213;46.452;16.994;2023-05-03T06:45:03;9.88;;;4.30;;
75628;SDS011;64213;46.452;16.994;2023-05-03T06:48:05;12.37;;;5.93;;
75628;SDS011;64213;46.452;16.994;2023-05-03T06:51:08;12.18;;;4.95;;
75628;SDS011;64213;46.452;16.994;2023-05-03T06:54:10;10.40;;;4.80;;
75628;SDS011;64213;46.452;16.994;2023-05-03T06:57:12;12.90;;;5.37;;
75628;SDS011;64213;46.452;16.994;2023-05-03T07:00:15;12.02;;;5.90;;
75628;SDS011;64213;46.452;16.994;2023-05-03T07:03:17;11.93;;;4.70;;
75628;SDS011;64213;46.452;16.994;2023-05-03T07:06:19;12.80;;;5.53;;
75628;SDS011;64213;46.452;16.994;2023-05-03T07:09:24;13.32;;;5.45;;
75628;SDS011;64213;46.452;16.994;2023-05-03T07:12:29;11.93;;;5.73;;
75628;SDS011;64213;46.452;16.994;2023-05-03T07:15:31;12.18;;;5.97;;
75628;SDS011;64213;46.452;16.994;2023-05-03T07:18:33;13.32;;;5.82;;
75628;SDS011;64213;46.452;16.994;2023-05-03T07:21:35;13.60;;;6.85;;
75628;SDS011;64213;46.452;16.994;2023-05-03T07:24:38;13.62;;;6.28;;
75628;SDS011;64213;46.452;16.994;2023-05-03T07:27:40;12.03;;;5.70;;
75628;SDS011;64213;46.452;16.994;2023-05-03T07:30:42;13.85;;;6.62;;
75628;SDS011;64213;46.452;16.994;2023-05-03T07:33:44;12.75;;;4.95;;
75628;SDS011;64213;46.452;16.994;2023-05-03T07:36:47;14.23;;;6.10;;
75628;SDS011;64213;46.452;16.994;2023-05-03T07:39:49;12.70;;;5.28;;
75628;SDS011;64213;46.452;16.994;2023-05-03T07:42:51;13.33;;;5.93;;
75628;SDS011;64213;46.452;16.994;2023-05-03T07:45:53;11.60;;;4.72;;
75628;SDS011;64213;46.452;16.994;2023-05-03T07:48:57;13.60;;;5.80;;
75628;SDS011;64213;46.452;16.994;2023-05-03T07:51:59;13.07;;;5.57;;
75628;SDS011;64213;46.452;16.994;2023-05-03T07:55:02;12.97;;;5.87;;
75628;SDS011;64213;46.452;16.994;2023-05-03T07:58:04;13.57;;;6.70;;
75628;SDS011;64213;46.452;16.994;2023-05-03T08:01:06;11.73;;;4.72;;
75628;SDS011;64213;46.452;16.994;2023-05-03T08:04:08;12.80;;;5.82;;
75628;SDS011;64213;46.452;16.994;2023-05-03T08:07:11;12.90;;;5.85;;
75628;SDS011;64213;46.452;16.994;2023-05-03T08:10:13;12.63;;;6.43;;
75628;SDS011;64213;46.452;16.994;2023-05-03T08:13:15;12.00;;;5.73;;
75628;SDS011;64213;46.452;16.994;2023-05-03T08:16:17;11.73;;;5.57;;
75628;SDS011;64213;46.452;16.994;2023-05-03T08:19:21;12.75;;;6.30;;
75628;SDS011;64213;46.452;16.994;2023-05-03T08:22:22;10.80;;;5.47;;
75628;SDS011;64213;46.452;16.994;2023-05-03T08:25:27;11.30;;;5.27;;
75628;SDS011;64213;46.452;16.994;2023-05-03T08:28:30;11.93;;;5.57;;
75628;SDS011;64213;46.452;16.994;2023-05-03T08:31:32;14.43;;;6.05;;
75628;SDS011;64213;46.452;16.994;2023-05-03T08:34:35;16.08;;;7.70;;
75628;SDS011;64213;46.452;16.994;2023-05-03T08:37:38;12.32;;;6.50;;
75628;SDS011;64213;46.452;16.994;2023-05-03T08:40:40;12.60;;;5.93;;
75628;SDS011;64213;46.452;16.994;2023-05-03T08:43:43;12.47;;;5.77;;
75628;SDS011;64213;46.452;16.994;2023-05-03T08:46:49;13.00;;;6.62;;
75628;SDS011;64213;46.452;16.994;2023-05-03T08:49:51;14.27;;;7.60;;
75628;SDS011;64213;46.452;16.994;2023-05-03T08:52:54;11.38;;;5.82;;
75628;SDS011;64213;46.452;16.994;2023-05-03T08:55:57;12.10;;;6.05;;
75628;SDS011;64213;46.452;16.994;2023-05-03T08:58:59;13.10;;;6.10;;
75628;SDS011;64213;46.452;16.994;2023-05-03T09:02:08;10.75;;;4.78;;
75628;SDS011;64213;46.452;16.994;2023-05-03T09:08:17;11.57;;;5.60;;
75628;SDS011;64213;46.452;16.994;2023-05-03T09:11:26;12.20;;;6.00;;
75628;SDS011;64213;46.452;16.994;2023-05-03T09:14:30;13.43;;;5.13;;
75628;SDS011;64213;46.452;16.994;2023-05-03T09:17:32;11.80;;;3.70;;
75628;SDS011;64213;46.452;16.994;2023-05-03T09:20:34;14.60;;;5.00;;
75628;SDS011;64213;46.452;16.994;2023-05-03T09:23:37;13.55;;;5.53;;
75628;SDS011;64213;46.452;16.994;2023-05-03T09:26:40;10.40;;;4.90;;
75628;SDS011;64213;46.452;16.994;2023-05-03T09:29:43;10.20;;;4.10;;
75628;SDS011;64213;46.452;16.994;2023-05-03T09:32:48;10.90;;;5.10;;
75628;SDS011;64213;46.452;16.994;2023-05-03T09:38:59;11.48;;;5.10;;
75628;SDS011;64213;46.452;16.994;2023-05-03T09:42:17;8.95;;;3.30;;
75628;SDS011;64213;46.452;16.994;2023-05-03T09:45:22;10.83;;;5.20;;
75628;SDS011;64213;46.452;16.994;2023-05-03T09:48:24;11.43;;;4.93;;
75628;SDS011;64213;46.452;16.994;2023-05-03T09:51:27;11.02;;;5.22;;
75628;SDS011;64213;46.452;16.994;2023-05-03T09:54:29;9.77;;;4.75;;
75628;SDS011;64213;46.452;16.994;2023-05-03T09:57:35;11.12;;;4.87;;
75628;SDS011;64213;46.452;16.994;2023-05-03T10:00:40;10.63;;;4.80;;
75628;SDS011;64213;46.452;16.994;2023-05-03T10:03:45;8.77;;;3.80;;
75628;SDS011;64213;46.452;16.994;2023-05-03T10:06:51;9.85;;;4.53;;
75628;SDS011;64213;46.452;16.994;2023-05-03T10:09:59;11.93;;;4.80;;
75628;SDS011;64213;46.452;16.994;2023-05-03T10:13:01;11.32;;;5.60;;
75628;SDS011;64213;46.452;16.994;2023-05-03T10:16:05;10.13;;;4.90;;
75628;SDS011;64213;46.452;16.994;2023-05-03T10:22:14;13.82;;;5.62;;
75628;SDS011;64213;46.452;16.994;2023-05-03T10:25:17;12.73;;;5.85;;
75628;SDS011;64213;46.452;16.994;2023-05-03T10:28:19;11.73;;;5.75;;
75628;SDS011;64213;46.452;16.994;2023-05-03T10:31:42;11.23;;;5.23;;
75628;SDS011;64213;46.452;16.994;2023-05-03T10:34:52;11.75;;;5.20;;
75628;SDS011;64213;46.452;16.994;2023-05-03T10:38:15;11.85;;;5.50;;
75628;SDS011;64213;46.452;16.994;2023-05-03T10:41:23;13.10;;;6.35;;
75628;SDS011;64213;46.452;16.994;2023-05-03T10:44:27;11.53;;;5.73;;
75628;SDS011;64213;46.452;16.994;2023-05-03T10:47:35;13.73;;;6.17;;
75628;SDS011;64213;46.452;16.994;2023-05-03T10:50:37;12.63;;;5.90;;
75628;SDS011;64213;46.452;16.994;2023-05-03T10:53:40;11.18;;;4.93;;
75628;SDS011;64213;46.452;16.994;2023-05-03T10:56:51;13.68;;;7.00;;
75628;SDS011;64213;46.452;16.994;2023-05-03T10:59:54;11.12;;;4.90;;
75628;SDS011;64213;46.452;16.994;2023-05-03T11:06:45;13.80;;;6.32;;
75628;SDS011;64213;46.452;16.994;2023-05-03T11:09:50;15.38;;;7.68;;
75628;SDS011;64213;46.452;16.994;2023-05-03T11:12:52;15.05;;;7.70;;
75628;SDS011;64213;46.452;16.994;2023-05-03T11:15:55;13.53;;;5.27;;
75628;SDS011;64213;46.452;16.994;2023-05-03T11:18:58;9.63;;;4.13;;
75628;SDS011;64213;46.452;16.994;2023-05-03T11:22:07;15.05;;;6.85;;
75628;SDS011;64213;46.452;16.994;2023-05-03T11:25:10;13.73;;;6.53;;
75628;SDS011;64213;46.452;16.994;2023-05-03T11:28:12;13.23;;;6.82;;
75628;SDS011;64213;46.452;16.994;2023-05-03T11:31:14;14.55;;;7.32;;
75628;SDS011;64213;46.452;16.994;2023-05-03T11:34:16;17.17;;;8.23;;
75628;SDS011;64213;46.452;16.994;2023-05-03T11:37:19;16.05;;;8.27;;
75628;SDS011;64213;46.452;16.994;2023-05-03T11:40:21;15.13;;;7.68;;
75628;SDS011;64213;46.452;16.994;2023-05-03T11:43:25;15.23;;;7.70;;
75628;SDS011;64213;46.452;16.994;2023-05-03T11:46:30;15.68;;;7.93;;
75628;SDS011;64213;46.452;16.994;2023-05-03T11:49:35;14.67;;;7.63;;
75628;SDS011;64213;46.452;16.994;2023-05-03T11:52:37;14.13;;;7.43;;
75628;SDS011;64213;46.452;16.994;2023-05-03T11:55:40;12.65;;;6.82;;
75628;SDS011;64213;46.452;16.994;2023-05-03T11:58:56;12.90;;;6.12;;
75628;SDS011;64213;46.452;16.994;2023-05-03T12:02:01;13.52;;;7.85;;
75628;SDS011;64213;46.452;16.994;2023-05-03T12:05:05;13.23;;;7.20;;
75628;SDS011;64213;46.452;16.994;2023-05-03T12:08:09;12.75;;;6.95;;
75628;SDS011;64213;46.452;16.994;2023-05-03T12:11:15;13.90;;;6.60;;
75628;SDS011;64213;46.452;16.994;2023-05-03T12:14:19;14.20;;;7.28;;
75628;SDS011;64213;46.452;16.994;2023-05-03T12:17:34;10.55;;;5.28;;
75628;SDS011;64213;46.452;16.994;2023-05-03T12:20:42;11.13;;;5.20;;
75628;SDS011;64213;46.452;16.994;2023-05-03T12:24:04;14.80;;;7.12;;
75628;SDS011;64213;46.452;16.994;2023-05-03T12:27:07;10.90;;;5.25;;
75628;SDS011;64213;46.452;16.994;2023-05-03T12:30:10;14.85;;;7.43;;
75628;SDS011;64213;46.452;16.994;2023-05-03T12:33:13;12.63;;;6.25;;
75628;SDS011;64213;46.452;16.994;2023-05-03T12:36:17;12.97;;;5.97;;
75628;SDS011;64213;46.452;16.994;2023-05-03T12:39:20;14.02;;;6.70;;
75628;SDS011;64213;46.452;16.994;2023-05-03T12:42:22;11.90;;;6.60;;
75628;SDS011;64213;46.452;16.994;2023-05-03T12:45:28;12.63;;;6.07;;
75628;SDS011;64213;46.452;16.994;2023-05-03T12:48:35;8.85;;;4.15;;
75628;SDS011;64213;46.452;16.994;2023-05-03T12:51:37;12.03;;;5.47;;
75628;SDS011;64213;46.452;16.994;2023-05-03T12:54:43;10.88;;;5.03;;
75628;SDS011;64213;46.452;16.994;2023-05-03T12:57:49;9.57;;;4.45;;
75628;SDS011;64213;46.452;16.994;2023-05-03T13:01:13;8.93;;;4.03;;
75628;SDS011;64213;46.452;16.994;2023-05-03T13:04:38;9.73;;;3.90;;
75628;SDS011;64213;46.452;16.994;2023-05-03T13:07:42;9.80;;;4.47;;
75628;SDS011;64213;46.452;16.994;2023-05-03T13:10:45;9.85;;;4.55;;
75628;SDS011;64213;46.452;16.994;2023-05-03T13:13:48;12.43;;;5.53;;
75628;SDS011;64213;46.452;16.994;2023-05-03T13:16:50;11.75;;;5.43;;
75628;SDS011;64213;46.452;16.994;2023-05-03T13:19:52;12.23;;;5.50;;
75628;SDS011;64213;46.452;16.994;2023-05-03T13:22:54;10.67;;;5.47;;
75628;SDS011;64213;46.452;16.994;2023-05-03T13:25:57;9.63;;;3.87;;
75628;SDS011;64213;46.452;16.994;2023-05-03T13:28:59;10.38;;;5.00;;
75628;SDS011;64213;46.452;16.994;2023-05-03T13:32:02;10.30;;;5.20;;
75628;SDS011;64213;46.452;16.994;2023-05-03T13:35:04;11.10;;;4.78;;
75628;SDS011;64213;46.452;16.994;2023-05-03T13:38:07;10.60;;;4.77;;
75628;SDS011;64213;46.452;16.994;2023-05-03T13:41:10;9.07;;;4.47;;
75628;SDS011;64213;46.452;16.994;2023-05-03T13:44:13;10.52;;;4.35;;
75628;SDS011;64213;46.452;16.994;2023-05-03T13:47:15;9.05;;;3.60;;
75628;SDS011;64213;46.452;16.994;2023-05-03T13:50:17;7.65;;;3.40;;
75628;SDS011;64213;46.452;16.994;2023-05-03T13:53:19;9.63;;;4.17;;
75628;SDS011;64213;46.452;16.994;2023-05-03T13:56:22;10.50;;;4.18;;
75628;SDS011;64213;46.452;16.994;2023-05-03T13:59:23;8.48;;;3.47;;
75628;SDS011;64213;46.452;16.994;2023-05-03T14:02:26;7.82;;;3.05;;
75628;SDS011;64213;46.452;16.994;2023-05-03T14:05:28;9.68;;;3.25;;
75628;SDS011;64213;46.452;16.994;2023-05-03T14:08:31;8.53;;;2.93;;
75628;SDS011;64213;46.452;16.994;2023-05-03T14:11:33;9.88;;;3.78;;
75628;SDS011;64213;46.452;16.994;2023-05-03T14:14:36;10.02;;;3.70;;
75628;SDS011;64213;46.452;16.994;2023-05-03T14:17:38;9.07;;;4.55;;
75628;SDS011;64213;46.452;16.994;2023-05-03T14:20:43;10.00;;;4.03;;
75628;SDS011;64213;46.452;16.994;2023-05-03T14:23:51;10.00;;;4.60;;
75628;SDS011;64213;46.452;16.994;2023-05-03T14:26:55;9.38;;;3.67;;
75628;SDS011;64213;46.452;16.994;2023-05-03T14:30:00;8.98;;;4.35;;
75628;SDS011;64213;46.452;16.994;2023-05-03T14:33:04;9.00;;;3.55;;
75628;SDS011;64213;46.452;16.994;2023-05-03T14:36:07;8.90;;;4.10;;
75628;SDS011;64213;46.452;16.994;2023-05-03T14:39:10;10.00;;;3.93;;
75628;SDS011;64213;46.452;16.994;2023-05-03T14:42:15;8.88;;;3.87;;
75628;SDS011;64213;46.452;16.994;2023-05-03T14:45:17;9.23;;;4.03;;
75628;SDS011;64213;46.452;16.994;2023-05-03T14:48:20;7.57;;;3.12;;
75628;SDS011;64213;46.452;16.994;2023-05-03T14:51:22;9.20;;;4.00;;
75628;SDS011;64213;46.452;16.994;2023-05-03T14:54:24;9.30;;;4.13;;
75628;SDS011;64213;46.452;16.994;2023-05-03T14:57:27;8.68;;;3.62;;
75628;SDS011;64213;46.452;16.994;2023-05-03T15:00:29;10.13;;;3.75;;
75628;SDS011;64213;46.452;16.994;2023-05-03T15:03:32;10.13;;;4.18;;
75628;SDS011;64213;46.452;16.994;2023-05-03T15:06:34;9.10;;;4.10;;
75628;SDS011;64213;46.452;16.994;2023-05-03T15:09:39;9.43;;;4.13;;
75628;SDS011;64213;46.452;16.994;2023-05-03T15:12:42;11.90;;;4.35;;
75628;SDS011;64213;46.452;16.994;2023-05-03T15:15:45;11.70;;;4.18;;
75628;SDS011;64213;46.452;16.994;2023-05-03T15:18:47;9.77;;;4.35;;
75628;SDS011;64213;46.452;16.994;2023-05-03T15:21:49;10.32;;;4.62;;
75628;SDS011;64213;46.452;16.994;2023-05-03T15:24:52;10.23;;;4.17;;
75628;SDS011;64213;46.452;16.994;2023-05-03T15:27:54;9.60;;;4.35;;
75628;SDS011;64213;46.452;16.994;2023-05-03T15:30:58;8.95;;;3.87;;
75628;SDS011;64213;46.452;16.994;2023-05-03T15:34:00;11.63;;;4.47;;
75628;SDS011;64213;46.452;16.994;2023-05-03T15:37:03;8.88;;;3.62;;
75628;SDS011;64213;46.452;16.994;2023-05-03T15:40:06;8.57;;;3.43;;
75628;SDS011;64213;46.452;16.994;2023-05-03T15:43:10;10.60;;;3.50;;
75628;SDS011;64213;46.452;16.994;2023-05-03T15:46:12;8.02;;;3.12;;
75628;SDS011;64213;46.452;16.994;2023-05-03T15:49:14;8.43;;;3.30;;
75628;SDS011;64213;46.452;16.994;2023-05-03T15:52:16;9.93;;;3.65;;
75628;SDS011;64213;46.452;16.994;2023-05-03T15:55:21;9.13;;;3.53;;
75628;SDS011;64213;46.452;16.994;2023-05-03T15:58:24;8.13;;;3.17;;
75628;SDS011;64213;46.452;16.994;2023-05-03T16:01:32;5.62;;;1.98;;
75628;SDS011;64213;46.452;16.994;2023-05-03T16:04:34;8.57;;;2.95;;
75628;SDS011;64213;46.452;16.994;2023-05-03T16:07:40;8.15;;;3.50;;
75628;SDS011;64213;46.452;16.994;2023-05-03T16:10:42;7.20;;;2.90;;
75628;SDS011;64213;46.452;16.994;2023-05-03T16:13:45;9.60;;;3.20;;
75628;SDS011;64213;46.452;16.994;2023-05-03T16:16:47;8.35;;;3.10;;
75628;SDS011;64213;46.452;16.994;2023-05-03T16:19:50;7.43;;;2.55;;
75628;SDS011;64213;46.452;16.994;2023-05-03T16:22:53;7.55;;;3.12;;
75628;SDS011;64213;46.452;16.994;2023-05-03T16:25:55;8.43;;;3.20;;
75628;SDS011;64213;46.452;16.994;2023-05-03T16:28:57;9.82;;;3.20;;
75628;SDS011;64213;46.452;16.994;2023-05-03T16:31:59;10.30;;;3.17;;
75628;SDS011;64213;46.452;16.994;2023-05-03T16:35:02;7.95;;;3.10;;
75628;SDS011;64213;46.452;16.994;2023-05-03T16:38:04;6.18;;;2.20;;
75628;SDS011;64213;46.452;16.994;2023-05-03T16:41:07;7.43;;;2.70;;
75628;SDS011;64213;46.452;16.994;2023-05-03T16:44:09;8.43;;;3.00;;
75628;SDS011;64213;46.452;16.994;2023-05-03T16:47:12;13.07;;;3.50;;
75628;SDS011;64213;46.452;16.994;2023-05-03T16:50:15;8.32;;;3.25;;
75628;SDS011;64213;46.452;16.994;2023-05-03T16:53:19;8.93;;;3.15;;
75628;SDS011;64213;46.452;16.994;2023-05-03T16:56:22;8.63;;;3.10;;
75628;SDS011;64213;46.452;16.994;2023-05-03T16:59:24;7.80;;;3.17;;
75628;SDS011;64213;46.452;16.994;2023-05-03T17:02:28;9.05;;;3.30;;
75628;SDS011;64213;46.452;16.994;2023-05-03T17:05:32;8.05;;;3.20;;
75628;SDS011;64213;46.452;16.994;2023-05-03T17:08:35;9.30;;;3.62;;
75628;SDS011;64213;46.452;16.994;2023-05-03T17:11:38;6.13;;;1.90;;
75628;SDS011;64213;46.452;16.994;2023-05-03T17:14:40;8.50;;;3.00;;
75628;SDS011;64213;46.452;16.994;2023-05-03T17:17:41;7.10;;;2.62;;
75628;SDS011;64213;46.452;16.994;2023-05-03T17:20:44;9.85;;;3.80;;
75628;SDS011;64213;46.452;16.994;2023-05-03T17:23:46;8.75;;;3.35;;
75628;SDS011;64213;46.452;16.994;2023-05-03T17:26:48;9.50;;;3.60;;
75628;SDS011;64213;46.452;16.994;2023-05-03T17:29:50;9.90;;;3.25;;
75628;SDS011;64213;46.452;16.994;2023-05-03T17:32:52;9.57;;;3.10;;
75628;SDS011;64213;46.452;16.994;2023-05-03T17:35:54;10.23;;;3.47;;
75628;SDS011;64213;46.452;16.994;2023-05-03T17:38:57;8.38;;;2.80;;
75628;SDS011;64213;46.452;16.994;2023-05-03T17:42:00;8.80;;;3.30;;
75628;SDS011;64213;46.452;16.994;2023-05-03T17:45:02;8.25;;;3.10;;
75628;SDS011;64213;46.452;16.994;2023-05-03T17:48:05;11.90;;;3.05;;
75628;SDS011;64213;46.452;16.994;2023-05-03T17:51:07;8.73;;;3.67;;
75628;SDS011;64213;46.452;16.994;2023-05-03T17:54:13;8.68;;;3.25;;
75628;SDS011;64213;46.452;16.994;2023-05-03T17:57:15;8.60;;;2.00;;
75628;SDS011;64213;46.452;16.994;2023-05-03T18:00:18;9.27;;;3.03;;
75628;SDS011;64213;46.452;16.994;2023-05-03T18:03:21;8.55;;;3.35;;
75628;SDS011;64213;46.452;16.994;2023-05-03T18:06:24;8.18;;;2.85;;
75628;SDS011;64213;46.452;16.994;2023-05-03T18:09:28;6.57;;;2.28;;